Terminal Aerodrome Forecast
Issued by NWS Cleveland, OH

Home | Current Version | Previous Version | Text Only | Print | Product List | Glossary On
Versions: 1 2 3 4 5 6 7 8 9 10 11 12 13 14 15 16 17 18 19
000
FTUS41 KCLE 201000 AAB
TAFYNG
TAF AMD
KYNG 201007Z 2010/2106 14008KT 6SM BR VCTS SCT015 OVC035CB
      TEMPO 2010/2013 3SM -TSRA BR BKN004 OVC025CB
     FM201300 19006KT 6SM BR SCT004 BKN015
     FM201500 22008KT P6SM BKN025
     FM201800 24009KT P6SM VCTS BKN035CB OVC150
     FM210100 24005KT P6SM BKN040 BKN150=

USA.gov is the U.S. government's official web portal to all federal, state and local government web resources and services.